createdAt,value
2023-02-14T00:05:11.217Z,103339.13
2023-02-14T00:10:56.815Z,103327.16
2023-02-14T00:16:26.169Z,103335.09
2023-02-14T00:21:37.517Z,103329.44
2023-02-14T00:27:20.455Z,103328.97
2023-02-14T00:38:46.746Z,103333.44
2023-02-14T01:03:13.265Z,103329.22
2023-02-14T01:08:58.617Z,103326.97
2023-02-14T01:20:50.881Z,103328.75
2023-02-14T01:26:10.094Z,103322.13
2023-02-14T01:31:27.032Z,103326.66
2023-02-14T01:36:46.393Z,103318.69
2023-02-14T01:42:07.149Z,103324.34
2023-02-14T01:59:54.625Z,103330.16
2023-02-14T02:19:20.068Z,103312.41
2023-02-14T02:24:51.700Z,103313.16
2023-02-14T02:36:14.828Z,103307.31
2023-02-14T02:41:59.645Z,103308.34
2023-02-14T02:55:07.301Z,103306.47
2023-02-14T02:59:23.748Z,103312.78
2023-02-14T03:05:05.942Z,103300.66
2023-02-14T03:23:17.224Z,103286.44
2023-02-14T03:28:12.466Z,103275.13
2023-02-14T03:45:51.837Z,103296.59
2023-02-14T03:51:09.017Z,103284.03
2023-02-14T03:56:53.140Z,103285.75
2023-02-14T04:03:17.859Z,103290.00
2023-02-14T04:14:28.350Z,103279.66
2023-02-14T04:19:41.901Z,103274.41
2023-02-14T04:24:46.675Z,103282.91
2023-02-14T04:29:52.611Z,103295.72
2023-02-14T04:34:55.045Z,103286.75
2023-02-14T04:40:11.930Z,103278.50
2023-02-14T04:45:14.638Z,103293.06
2023-02-14T04:50:22.203Z,103282.91
2023-02-14T04:55:31.735Z,103268.97
2023-02-14T05:00:36.700Z,103268.75
2023-02-14T05:05:44.473Z,103270.75
2023-02-14T05:12:56.957Z,103257.09
2023-02-14T05:17:32.649Z,103257.06
2023-02-14T05:22:40.505Z,103250.03
2023-02-14T05:27:42.418Z,103248.94
2023-02-14T05:32:46.614Z,103244.38
2023-02-14T05:38:25.391Z,103262.16
2023-02-14T05:43:32.662Z,103256.94
2023-02-14T05:48:41.887Z,103259.00
2023-02-14T05:54:19.764Z,103253.03
2023-02-14T06:12:09.069Z,103258.00
2023-02-14T06:17:11.446Z,103257.63
2023-02-14T06:22:16.606Z,103260.00
2023-02-14T06:27:35.145Z,103259.91
2023-02-14T06:32:41.988Z,103271.13
2023-02-14T06:37:45.664Z,103250.84
2023-02-14T06:42:55.026Z,103258.00
2023-02-14T06:47:58.265Z,103268.75
2023-02-14T06:53:00.160Z,103273.31
2023-02-14T06:58:11.134Z,103268.31
2023-02-14T07:03:13.189Z,103279.25
2023-02-14T07:08:26.097Z,103269.63
2023-02-14T07:13:34.418Z,103282.81
2023-02-14T07:19:05.237Z,103278.53
2023-02-14T07:24:09.486Z,103276.09
2023-02-14T07:29:14.905Z,103272.56
2023-02-14T07:34:28.577Z,103283.47
2023-02-14T07:39:32.295Z,103284.84
2023-02-14T07:44:34.263Z,103285.56
2023-02-14T07:50:22.445Z,103274.38
2023-02-14T07:55:31.126Z,103277.59
2023-02-14T08:00:36.700Z,103268.81
2023-02-14T08:05:55.946Z,103256.53
2023-02-14T08:11:07.748Z,103252.16
2023-02-14T08:16:15.024Z,103251.91
2023-02-14T08:21:17.417Z,103251.88
2023-02-14T08:31:52.293Z,103260.19
2023-02-14T08:36:58.515Z,103258.19
2023-02-14T08:42:07.997Z,103243.69
2023-02-14T08:47:10.319Z,103243.28
2023-02-14T08:52:12.387Z,103236.25
2023-02-14T08:57:19.639Z,103244.16
2023-02-14T09:02:31.004Z,103235.75
2023-02-14T09:07:34.688Z,103231.78
2023-02-14T09:12:44.005Z,103230.22
2023-02-14T09:17:46.570Z,103235.34
2023-02-14T09:22:48.882Z,103232.50
2023-02-14T09:27:55.394Z,103239.16
2023-02-14T09:33:04.920Z,103225.47
2023-02-14T09:38:38.933Z,103235.53
2023-02-14T09:44:11.481Z,103239.22
2023-02-14T09:49:22.812Z,103246.19
2023-02-14T09:54:34.087Z,103242.41
2023-02-14T09:59:47.415Z,103245.50
2023-02-14T10:05:07.650Z,103248.53
2023-02-14T10:10:24.509Z,103243.41
2023-02-14T10:15:31.263Z,103229.56
2023-02-14T10:20:39.627Z,103232.28
2023-02-14T10:25:46.584Z,103229.31
2023-02-14T10:31:08.319Z,103229.22
2023-02-14T10:36:45.329Z,103225.00
2023-02-14T10:41:49.227Z,103227.59
2023-02-14T10:47:01.470Z,103221.53
2023-02-14T10:52:23.564Z,103218.75
2023-02-14T10:57:25.143Z,103212.44
2023-02-14T11:02:34.192Z,103206.19
2023-02-14T11:07:35.891Z,103198.44
2023-02-14T11:12:40.139Z,103194.22
2023-02-14T11:17:42.638Z,103188.69
2023-02-14T11:22:44.556Z,103178.72
2023-02-14T11:27:50.543Z,103159.75
2023-02-14T11:32:57.021Z,103164.31
2023-02-14T11:38:03.398Z,103162.59
2023-02-14T11:43:15.104Z,103154.22
2023-02-14T11:48:37.898Z,103152.25
2023-02-14T11:53:54.919Z,103127.44
2023-02-14T11:59:27.809Z,103114.47
2023-02-14T12:04:38.183Z,103108.06
2023-02-14T12:09:49.712Z,103101.94
2023-02-14T12:14:53.838Z,103092.75
2023-02-14T12:20:21.361Z,103087.56
2023-02-14T12:25:27.474Z,103089.28
2023-02-14T12:30:37.973Z,103090.25
2023-02-14T12:36:29.947Z,103080.34
2023-02-14T12:42:03.683Z,103063.47
2023-02-14T12:47:27.494Z,103070.72
2023-02-14T12:53:00.166Z,103066.63
2023-02-14T12:58:14.156Z,103050.72
2023-02-14T13:03:52.883Z,103043.34
2023-02-14T13:09:21.620Z,103033.03
2023-02-14T13:14:49.348Z,103038.34
2023-02-14T13:20:30.955Z,103030.91
2023-02-14T13:26:19.552Z,103019.97
2023-02-14T13:31:22.339Z,102998.38
2023-02-14T13:36:26.703Z,103012.81
2023-02-14T13:41:38.064Z,102982.34
2023-02-14T13:47:08.527Z,102989.75
2023-02-14T13:52:14.858Z,102983.09
2023-02-14T13:57:36.735Z,102977.09
2023-02-14T14:02:48.775Z,102979.16
2023-02-14T14:08:23.503Z,102967.63
2023-02-14T14:13:56.543Z,102980.69
2023-02-14T14:19:09.285Z,102963.09
2023-02-14T14:24:53.769Z,102968.97
2023-02-14T14:30:20.109Z,102959.56
2023-02-14T14:35:24.705Z,102956.09
2023-02-14T14:40:29.778Z,102958.91
2023-02-14T14:45:44.616Z,102960.47
2023-02-14T14:50:52.515Z,102960.25
2023-02-14T15:14:54.963Z,102954.59
2023-02-14T15:26:31.708Z,102947.88
2023-02-14T15:31:45.205Z,102947.97
2023-02-14T15:36:52.325Z,102949.13
2023-02-14T15:42:04.451Z,102937.66
2023-02-14T15:47:42.503Z,102935.84
2023-02-14T15:53:14.393Z,102938.63
2023-02-14T15:58:28.822Z,102936.88
2023-02-14T16:03:44.980Z,102928.53
2023-02-14T16:09:51.274Z,102927.25
2023-02-14T16:15:32.797Z,102925.41
2023-02-14T16:21:24.776Z,102929.53
2023-02-14T16:27:28.297Z,102927.34
2023-02-14T16:32:48.896Z,102923.78
2023-02-14T16:44:21.546Z,102946.13
2023-02-14T16:56:37.487Z,102940.97
2023-02-14T17:01:50.841Z,102935.44
2023-02-14T17:07:00.939Z,102937.59
2023-02-14T17:12:17.143Z,102936.81
2023-02-14T17:17:39.071Z,102945.75
2023-02-14T17:23:39.924Z,102950.94
2023-02-14T17:28:48.023Z,102959.09
2023-02-14T17:34:32.039Z,102975.59
2023-02-14T18:09:53.320Z,102967.72
2023-02-14T18:15:36.703Z,102976.72
2023-02-14T18:48:00.632Z,102946.16
2023-02-14T18:53:05.090Z,102958.84
2023-02-14T19:03:57.879Z,102946.78
2023-02-14T19:15:24.844Z,102917.00
2023-02-14T19:20:35.427Z,102920.69
2023-02-14T19:25:45.073Z,102912.50
2023-02-14T19:31:53.753Z,102926.38
2023-02-14T19:37:40.885Z,102920.47
2023-02-14T19:42:55.393Z,102912.72
2023-02-14T19:47:59.490Z,102915.25
2023-02-14T19:53:08.648Z,102908.50
2023-02-14T19:58:10.912Z,102894.97
2023-02-14T20:03:20.830Z,102890.25
2023-02-14T20:09:00.563Z,102893.06
2023-02-14T20:27:42.112Z,102885.88
2023-02-14T20:33:47.265Z,102878.75
2023-02-14T20:39:34.572Z,102869.69
2023-02-14T20:45:03.057Z,102878.72
2023-02-14T22:34:22.444Z,102830.34
2023-02-14T22:39:47.092Z,102826.00
2023-02-14T22:51:34.969Z,102810.47
2023-02-14T22:56:50.039Z,102823.78
2023-02-14T23:02:02.613Z,102822.22
2023-02-14T23:07:29.580Z,102815.25
2023-02-14T23:13:01.519Z,102827.28
2023-02-14T23:18:31.290Z,102833.81
2023-02-14T23:23:36.460Z,102819.34
2023-02-14T23:28:43.775Z,102819.88
2023-02-14T23:33:48.373Z,102820.94
2023-02-14T23:38:54.104Z,102814.00
2023-02-14T23:44:03.256Z,102811.47
2023-02-14T23:49:07.174Z,102813.56
2023-02-14T23:54:09.778Z,102816.66
2023-02-14T23:59:12.471Z,102814.63
